Time;durP1;ratioP1;P1;durP2;ratioP2;P2;SDS_P1;SDS_P2;PMS_P1;PMS_P2;Temp;Humidity;BMP_temperature;BMP_pressure;BME280_temperature;BME280_humidity;BME280_pressure;Samples;Min_cycle;Max_cycle;Signal;HPM_P1;HPM_P2
2022/01/20 00:03:30;;;;;;;14.57;1.73;;;;;;;2.96;100.00;102134.00;4894263;29;20032;-63
2022/01/20 00:08:49;;;;;;;20.15;2.60;;;;;;;2.97;100.00;102136.63;4892599;29;20032;-63
2022/01/20 00:27:50;;;;;;;12.43;1.95;;;;;;;3.08;100.00;102125.34;4894130;29;20039;-63
2022/01/20 00:33:32;;;;;;;14.57;2.00;;;;;;;3.12;100.00;102150.66;4853657;29;20347;-63
2022/01/20 00:38:32;;;;;;;11.00;1.60;;;;;;;3.22;100.00;102160.31;4891813;29;20183;-63
2022/01/20 00:40:58;;;;;;;4.88;1.20;;;;;;;3.27;100.00;102149.88;4872946;29;20033;-64
2022/01/20 00:43:23;;;;;;;11.43;1.40;;;;;;;3.29;100.00;102149.88;4878334;29;20116;-64
2022/01/20 00:45:49;;;;;;;6.97;1.13;;;;;;;3.29;100.00;102136.81;4893544;29;20677;-64
2022/01/20 00:48:15;;;;;;;9.57;1.27;;;;;;;3.27;100.00;102147.25;4892198;29;20487;-64
2022/01/20 00:50:40;;;;;;;5.63;1.00;;;;;;;3.26;100.00;102151.63;4892977;29;20075;-64
2022/01/20 00:53:06;;;;;;;7.07;1.20;;;;;;;3.22;100.00;102152.47;4893161;29;20106;-64
2022/01/20 00:55:32;;;;;;;9.38;1.20;;;;;;;3.21;100.00;102139.41;4891894;29;20095;-64
2022/01/20 00:57:58;;;;;;;7.80;1.20;;;;;;;3.18;100.00;102147.22;4876250;29;20024;-64
2022/01/20 01:00:24;;;;;;;5.10;1.30;;;;;;;3.16;100.00;102159.41;4889454;29;20601;-64
2022/01/20 01:02:49;;;;;;;6.90;1.10;;;;;;;3.11;100.00;102157.63;4893478;29;20050;-64
2022/01/20 01:05:15;;;;;;;10.68;1.50;;;;;;;3.09;100.00;102162.00;4892262;29;20059;-64
2022/01/20 01:07:46;;;;;;;6.45;1.40;;;;;;;3.08;100.00;102156.75;4893573;29;20031;-64
2022/01/20 01:10:17;;;;;;;5.05;1.10;;;;;;;3.07;100.00;102158.50;4889854;29;20042;-64
2022/01/20 01:15:15;;;;;;;7.60;1.50;;;;;;;3.05;100.00;102149.75;4891992;29;20040;-64
2022/01/20 01:20:26;;;;;;;10.85;1.55;;;;;;;3.03;100.00;102143.63;4891919;29;20039;-64
2022/01/20 01:22:52;;;;;;;7.10;1.70;;;;;;;3.05;100.00;102144.50;4890942;29;20284;-64
2022/01/20 01:25:17;;;;;;;9.23;1.80;;;;;;;3.06;100.00;102156.72;4892445;29;20249;-64
2022/01/20 01:27:45;;;;;;;13.05;1.48;;;;;;;3.08;100.00;102170.72;4892879;29;20724;-65
2022/01/20 01:35:08;;;;;;;17.48;2.03;;;;;;;3.21;100.00;102217.91;4890643;29;20043;-64
2022/01/20 01:40:08;;;;;;;6.03;1.00;;;;;;;3.21;100.00;102200.44;4890312;29;20419;-64
2022/01/20 01:42:41;;;;;;;2.88;0.77;;;;;;;3.18;100.00;102197.81;4892800;29;20271;-64
2022/01/20 01:45:24;;;;;;;4.30;0.88;;;;;;;3.15;100.00;102199.56;4871691;29;20182;-64
2022/01/20 01:47:50;;;;;;;;;;;;;;;3.10;100.00;102189.91;4891613;29;20048;-64
2022/01/20 01:50:16;;;;;;;9.35;1.00;;;;;;;3.09;100.00;102190.78;4892194;29;19949;-64
2022/01/20 01:52:42;;;;;;;7.38;1.60;;;;;;;3.07;100.00;102200.38;4892066;29;20040;-62
2022/01/20 01:55:08;;;;;;;12.38;1.50;;;;;;;3.05;100.00;102209.94;4891155;29;20043;-64
2022/01/20 01:57:34;;;;;;;8.25;1.73;;;;;;;3.04;100.00;102208.19;4891527;29;20036;-64
2022/01/20 02:00:00;;;;;;;11.13;1.30;;;;;;;3.02;100.00;102215.16;4897157;29;20032;-64
2022/01/20 02:02:27;;;;;;;10.35;1.38;;;;;;;3.03;100.00;102210.78;4897873;29;20774;-64
2022/01/20 02:04:52;;;;;;;17.75;2.10;;;;;;;3.05;100.00;102220.41;4896048;29;20028;-64
2022/01/20 02:07:48;;;;;;;17.05;2.72;;;;;;;3.09;100.00;102222.19;4897780;29;20442;-64
2022/01/20 02:20:49;;;;;;;11.00;1.80;;;;;;;3.17;100.00;102234.44;4897525;29;20051;-65
2022/01/20 02:23:15;;;;;;;15.50;1.73;;;;;;;3.18;100.00;102241.44;4897698;29;20142;-64
2022/01/20 02:25:40;;;;;;;9.40;1.70;;;;;;;3.20;100.00;102261.53;4896506;29;20068;-64
2022/01/20 02:28:08;;;;;;;15.07;2.22;;;;;;;3.19;100.00;102267.63;4898354;29;20123;-64
2022/01/20 02:30:35;;;;;;;14.27;2.25;;;;;;;3.16;100.00;102240.56;4898543;29;20125;-64
2022/01/20 02:33:10;;;;;;;14.93;2.55;;;;;;;3.15;100.00;102239.66;4897570;29;20040;-64
2022/01/20 02:35:43;;;;;;;17.70;2.67;;;;;;;3.11;100.00;102236.16;4896848;29;21408;-64
2022/01/20 02:38:15;;;;;;;12.80;2.13;;;;;;;3.10;100.00;102238.75;4897299;29;20036;-64
2022/01/20 02:45:58;;;;;;;26.38;3.70;;;;;;;3.08;100.00;102251.84;4897849;29;20752;-64
2022/01/20 02:48:24;;;;;;;24.48;2.70;;;;;;;3.09;100.00;102255.31;4893470;29;20043;-64
2022/01/20 02:50:49;;;;;;;16.80;2.55;;;;;;;3.10;100.00;102257.97;4897281;29;20111;-64
2022/01/20 02:53:15;;;;;;;18.60;2.53;;;;;;;3.11;100.00;102272.78;4897044;29;20507;-64
2022/01/20 02:55:41;;;;;;;29.70;3.40;;;;;;;3.12;100.00;102294.63;4873962;29;20089;-64
2022/01/20 02:58:07;;;;;;;27.30;3.50;;;;;;;3.11;100.00;102266.69;4894678;29;20071;-64
2022/01/20 03:00:34;;;;;;;26.13;2.97;;;;;;;3.11;100.00;102270.16;4889904;29;20024;-63
2022/01/20 03:03:00;;;;;;;18.30;2.92;;;;;;;3.10;100.00;102278.88;4897770;29;20471;-64
2022/01/20 03:05:26;;;;;;;15.60;3.25;;;;;;;3.08;100.00;102283.25;4897462;29;20062;-64
2022/01/20 03:07:52;;;;;;;12.88;2.58;;;;;;;3.04;100.00;102286.69;4898080;29;20024;-64
2022/01/20 03:10:18;;;;;;;21.52;2.90;;;;;;;2.99;100.00;102298.84;4895673;29;21538;-64
2022/01/20 03:12:43;;;;;;;22.25;3.00;;;;;;;2.95;100.00;102297.06;4894671;29;20051;-64
2022/01/20 03:15:09;;;;;;;17.60;2.92;;;;;;;2.90;99.55;102304.88;4894347;29;20546;-64
2022/01/20 03:17:35;;;;;;;21.20;3.22;;;;;;;2.88;99.24;102308.34;4894557;29;20503;-64
2022/01/20 03:20:00;;;;;;;20.05;3.50;;;;;;;2.82;98.88;102302.19;4894018;29;20036;-64
2022/01/20 03:22:26;;;;;;;18.27;2.78;;;;;;;2.77;98.98;102303.88;4895301;29;20036;-63
2022/01/20 03:24:52;;;;;;;21.23;3.17;;;;;;;2.76;98.27;102324.75;4894244;29;20321;-64
2022/01/20 03:27:17;;;;;;;20.20;2.80;;;;;;;2.77;97.70;102322.16;4894075;29;20273;-63
2022/01/20 03:29:43;;;;;;;22.83;3.13;;;;;;;2.77;97.32;102330.03;4894287;29;20487;-64
2022/01/20 03:32:09;;;;;;;25.58;4.28;;;;;;;2.77;97.06;102318.69;4894073;29;20037;-64
2022/01/20 03:34:34;;;;;;;19.30;3.28;;;;;;;2.78;96.74;102323.91;4893580;29;20040;-64
2022/01/20 03:37:04;;;;;;;30.02;5.05;;;;;;;2.79;96.76;102324.81;4893340;29;20036;-64
2022/01/20 03:39:31;;;;;;;22.38;3.72;;;;;;;2.79;96.77;102325.66;4894519;29;20143;-64
2022/01/20 03:41:56;;;;;;;24.40;3.40;;;;;;;2.80;96.65;102329.19;4892469;29;20044;-64
2022/01/20 03:44:22;;;;;;;21.75;4.18;;;;;;;2.80;96.48;102345.78;4893302;29;20070;-64
2022/01/20 03:46:47;;;;;;;24.55;3.83;;;;;;;2.81;96.32;102330.94;4886829;29;20265;-63
2022/01/20 03:49:26;;;;;;;20.17;2.65;;;;;;;2.81;96.39;102336.16;4894457;29;20028;-63
2022/01/20 03:51:53;;;;;;;18.73;2.88;;;;;;;2.79;96.21;102335.28;4890640;29;20514;-63
2022/01/20 03:54:18;;;;;;;17.20;2.92;;;;;;;2.79;96.12;102337.91;4890814;29;20044;-63
2022/01/20 03:56:44;;;;;;;17.30;2.90;;;;;;;2.78;95.83;102336.13;4892814;29;20032;-63
2022/01/20 03:59:09;;;;;;;21.63;3.33;;;;;;;2.78;96.03;102357.94;4889609;29;20485;-63
2022/01/20 04:01:35;;;;;;;24.25;3.10;;;;;;;2.77;95.66;102358.78;4892184;29;20551;-64
2022/01/20 04:04:00;;;;;;;16.23;3.13;;;;;;;2.77;95.43;102360.56;4893433;29;20036;-64
2022/01/20 04:06:28;;;;;;;23.52;3.53;;;;;;;2.77;95.29;102371.88;4893105;29;20091;-64
2022/01/20 04:08:54;;;;;;;19.67;3.08;;;;;;;2.76;95.83;102385.81;4876750;29;20673;-64
2022/01/20 04:11:24;;;;;;;11.98;2.03;;;;;;;2.75;95.42;102388.41;4894785;29;20032;-64
2022/01/20 04:13:51;;;;;;;12.20;2.08;;;;;;;2.70;95.15;102381.41;4895360;29;20062;-63
2022/01/20 04:16:37;;;;;;;12.65;2.00;;;;;;;2.67;94.44;102380.50;4893541;29;20017;-64
2022/01/20 04:19:07;;;;;;;9.90;2.03;;;;;;;2.63;94.32;102383.91;4872595;29;20040;-64
2022/01/20 04:21:34;;;;;;;14.27;2.20;;;;;;;2.57;94.05;102367.28;4893940;29;20028;-63
2022/01/20 04:24:01;;;;;;;9.45;2.30;;;;;;;2.54;94.15;102368.97;4895257;29;20059;-63
2022/01/20 04:26:28;;;;;;;17.65;2.47;;;;;;;2.51;94.22;102363.72;4893903;29;20412;-64
2022/01/20 04:28:55;;;;;;;15.20;2.50;;;;;;;2.49;94.59;102373.25;4872537;29;20493;-64
2022/01/20 04:31:22;;;;;;;16.70;2.65;;;;;;;2.46;94.06;102381.09;4894423;29;20041;-64
2022/01/20 04:33:48;;;;;;;19.38;2.38;;;;;;;2.45;94.23;102374.97;4894307;29;20119;-64
2022/01/20 04:36:13;;;;;;;19.75;2.85;;;;;;;2.43;94.09;102376.69;4887164;29;20102;-64
2022/01/20 04:38:39;;;;;;;18.08;3.10;;;;;;;2.44;94.34;102383.66;4888327;29;20495;-64
2022/01/20 04:41:05;;;;;;;17.60;3.30;;;;;;;2.44;94.39;102388.91;4871475;29;20039;-64
2022/01/20 04:43:30;;;;;;;16.42;2.70;;;;;;;2.42;94.42;102385.38;4893511;29;20032;-64
2022/01/20 04:46:09;;;;;;;18.73;2.85;;;;;;;2.39;94.50;102385.38;4889526;29;20068;-64
2022/01/20 04:59:24;;;;;;;17.42;2.70;;;;;;;2.14;94.73;102392.84;4893999;29;20039;-64
2022/01/20 05:01:50;;;;;;;13.88;2.42;;;;;;;2.07;94.70;102396.22;4890351;29;20798;-64
2022/01/20 05:04:16;;;;;;;15.98;2.70;;;;;;;2.03;94.66;102396.16;4893240;29;20172;-64
2022/01/20 05:06:43;;;;;;;14.27;2.70;;;;;;;2.00;94.70;102397.84;4891323;29;20039;-64
2022/01/20 05:09:16;;;;;;;13.40;2.78;;;;;;;1.97;95.01;102403.03;4894026;29;20558;-64
2022/01/20 05:11:43;;;;;;;10.25;2.28;;;;;;;1.95;94.81;102416.06;4892867;29;20683;-64
2022/01/20 05:14:09;;;;;;;15.23;2.28;;;;;;;1.95;94.74;102417.81;4893936;29;20036;-64
2022/01/20 05:16:35;;;;;;;13.00;2.13;;;;;;;1.94;95.02;102437.84;4892601;29;20242;-64
2022/01/20 05:19:00;;;;;;;12.68;2.15;;;;;;;1.92;94.97;102420.38;4892774;29;20436;-64
2022/01/20 05:21:26;;;;;;;15.18;2.38;;;;;;;1.88;95.00;102425.56;4892693;29;20059;-64
2022/01/20 05:23:51;;;;;;;12.98;2.58;;;;;;;1.84;95.17;102422.84;4879650;29;21542;-64
2022/01/20 05:26:17;;;;;;;11.30;2.22;;;;;;;1.79;95.20;102433.22;4893495;29;20151;-64
2022/01/20 05:28:42;;;;;;;13.40;2.60;;;;;;;1.77;94.99;102429.72;4893327;29;21620;-64
2022/01/20 05:31:08;;;;;;;19.25;3.10;;;;;;;1.78;95.24;102433.22;4893966;29;20314;-64
2022/01/20 05:33:33;;;;;;;12.50;2.53;;;;;;;1.75;95.15;102432.28;4893229;29;20323;-64
2022/01/20 05:35:59;;;;;;;21.38;2.67;;;;;;;1.74;95.20;102438.38;4893629;29;20672;-63
2022/01/20 05:38:24;;;;;;;21.55;2.58;;;;;;;1.73;95.17;102439.22;4893830;29;20032;-63
2022/01/20 05:40:50;;;;;;;14.68;2.45;;;;;;;1.71;95.07;102442.66;4889492;29;20036;-64
2022/01/20 05:43:16;;;;;;;19.98;2.58;;;;;;;1.68;95.21;102448.72;4892321;29;20042;-64
2022/01/20 05:45:41;;;;;;;16.38;2.05;;;;;;;1.66;95.03;102444.31;4873632;29;21654;-64
2022/01/20 05:48:12;;;;;;;11.70;2.30;;;;;;;1.64;94.70;102436.47;4892378;29;20195;-64
2022/01/20 05:50:38;;;;;;;11.15;2.13;;;;;;;1.62;95.14;102449.50;4892276;29;20662;-64
2022/01/20 05:53:05;;;;;;;10.48;2.05;;;;;;;1.61;95.24;102447.75;4892936;29;20048;-64
2022/01/20 05:55:31;;;;;;;19.63;3.00;;;;;;;1.62;95.36;102480.84;4892482;29;20418;-63
2022/01/20 05:57:57;;;;;;;12.93;2.70;;;;;;;1.62;95.52;102483.44;4892647;29;20479;-62
2022/01/20 06:00:24;;;;;;;14.05;2.40;;;;;;;1.63;95.67;102471.25;4892976;29;20036;-63
2022/01/20 06:05:35;;;;;;;13.13;2.35;;;;;;;1.59;95.47;102470.31;4891831;29;20111;-63
2022/01/20 06:08:00;;;;;;;12.02;1.95;;;;;;;1.56;95.46;102469.38;4892043;29;20032;-62
2022/01/20 06:10:26;;;;;;;12.82;1.95;;;;;;;1.52;95.62;102470.19;4891928;29;20597;-64
2022/01/20 06:12:51;;;;;;;13.00;2.30;;;;;;;1.48;95.68;102456.22;4876229;29;20131;-64
2022/01/20 06:15:17;;;;;;;10.30;2.03;;;;;;;1.47;95.43;102454.44;4893565;29;20123;-63
2022/01/20 06:17:43;;;;;;;7.72;1.45;;;;;;;1.47;95.25;102459.66;4893024;29;20040;-65
2022/01/20 06:20:10;;;;;;;10.27;2.00;;;;;;;1.47;95.38;102462.28;4893019;29;20044;-65
2022/01/20 06:22:36;;;;;;;16.55;2.30;;;;;;;1.47;95.24;102476.19;4892687;29;20032;-65
2022/01/20 06:25:03;;;;;;;15.77;2.42;;;;;;;1.46;95.22;102482.28;4892347;29;20090;-64
2022/01/20 06:27:30;;;;;;;12.65;2.22;;;;;;;1.48;95.26;102498.84;4869047;29;20510;-65
2022/01/20 06:29:55;;;;;;;16.85;2.85;;;;;;;1.51;95.27;102498.03;4892650;29;21542;-65
2022/01/20 06:32:21;;;;;;;15.85;2.45;;;;;;;1.56;95.06;102516.38;4892807;29;20059;-64
2022/01/20 06:34:46;;;;;;;18.20;3.35;;;;;;;1.58;95.21;102502.50;4890171;29;20420;-65
2022/01/20 06:37:12;;;;;;;10.23;2.63;;;;;;;1.60;94.88;102518.19;4891727;29;20227;-65
2022/01/20 06:39:38;;;;;;;18.95;2.53;;;;;;;1.63;94.57;102507.81;4892933;29;20040;-64
2022/01/20 06:42:04;;;;;;;17.08;2.42;;;;;;;1.66;94.41;102523.53;4891383;29;20044;-64
2022/01/20 06:44:29;;;;;;;18.10;2.70;;;;;;;1.70;93.84;102508.81;4892406;29;20036;-65
2022/01/20 06:46:55;;;;;;;9.20;2.05;;;;;;;1.71;93.98;102506.25;4896662;29;20042;-65
2022/01/20 06:49:20;;;;;;;27.40;3.30;;;;;;;1.74;93.88;102506.28;4896021;29;20048;-65
2022/01/20 06:51:50;;;;;;;20.88;3.20;;;;;;;1.80;94.00;102530.75;4895402;29;20036;-65
2022/01/20 06:54:16;;;;;;;22.48;3.30;;;;;;;1.83;94.27;102531.69;4895629;29;20651;-64
2022/01/20 06:56:42;;;;;;;19.88;3.08;;;;;;;1.82;94.30;102518.59;4895811;29;20056;-64
2022/01/20 06:59:13;;;;;;;18.50;3.50;;;;;;;1.78;94.50;102520.28;4896523;29;20032;-63
2022/01/20 07:01:39;;;;;;;16.60;2.83;;;;;;;1.74;94.49;102526.31;4896034;29;20040;-63
2022/01/20 07:04:05;;;;;;;14.48;2.50;;;;;;;1.70;94.57;102521.88;4895699;29;20039;-63
2022/01/20 07:06:31;;;;;;;21.58;3.40;;;;;;;1.65;94.77;102527.00;4895195;29;20048;-63
2022/01/20 07:08:57;;;;;;;21.80;3.10;;;;;;;1.62;94.89;102526.94;4895968;29;20043;-63
2022/01/20 07:11:23;;;;;;;21.25;3.17;;;;;;;1.59;94.99;102525.16;4895571;29;20119;-64
2022/01/20 07:13:48;;;;;;;17.60;3.53;;;;;;;1.56;95.04;102534.66;4895855;29;20558;-63
2022/01/20 07:16:14;;;;;;;15.75;2.78;;;;;;;1.53;95.01;102539.81;4895953;29;20083;-64
2022/01/20 07:18:39;;;;;;;18.67;2.88;;;;;;;1.47;94.89;102536.25;4895706;29;20032;-64
2022/01/20 07:21:05;;;;;;;21.08;3.25;;;;;;;1.45;95.20;102550.09;4894860;29;21609;-64
2022/01/20 07:23:30;;;;;;;20.75;3.47;;;;;;;1.43;95.22;102546.59;4894880;29;20035;-64
2022/01/20 07:25:56;;;;;;;24.05;3.33;;;;;;;1.42;95.26;102550.91;4895623;29;22221;-64
2022/01/20 07:28:21;;;;;;;17.50;3.47;;;;;;;1.42;95.44;102550.91;4890482;29;20178;-64
2022/01/20 07:30:47;;;;;;;16.73;2.90;;;;;;;1.44;94.98;102557.06;4881526;29;20075;-64
2022/01/20 07:33:12;;;;;;;17.63;3.22;;;;;;;1.46;95.22;102555.38;4894709;29;20743;-64
2022/01/20 07:35:38;;;;;;;13.52;2.78;;;;;;;1.49;95.17;102560.63;4894198;29;20760;-64
2022/01/20 07:38:05;;;;;;;21.55;2.95;;;;;;;1.53;95.11;102586.81;4895585;29;20670;-64
2022/01/20 07:40:32;;;;;;;19.33;3.47;;;;;;;1.58;94.75;102579.97;4896184;29;20091;-64
2022/01/20 07:42:58;;;;;;;16.05;3.58;;;;;;;1.62;94.71;102581.78;4896020;29;20464;-64
2022/01/20 07:45:24;;;;;;;15.13;2.85;;;;;;;1.67;94.46;102572.31;4896231;29;20068;-64
2022/01/20 07:47:50;;;;;;;16.63;2.60;;;;;;;1.72;94.38;102578.50;4895980;29;20035;-64
2022/01/20 07:50:15;;;;;;;12.23;2.88;;;;;;;1.75;94.42;102588.13;4895226;29;20028;-64
2022/01/20 07:52:41;;;;;;;17.90;2.58;;;;;;;1.76;94.18;102587.28;4895227;29;20024;-64
2022/01/20 07:55:06;;;;;;;23.00;3.38;;;;;;;1.78;94.14;102579.47;4894974;29;20044;-64
2022/01/20 07:57:32;;;;;;;22.38;3.10;;;;;;;1.81;94.27;102595.19;4895019;29;20036;-63
2022/01/20 07:59:58;;;;;;;17.65;3.13;;;;;;;1.82;93.97;102608.28;4895251;29;20032;-63
2022/01/20 08:02:23;;;;;;;31.10;3.90;;;;;;;1.85;93.85;102623.16;4894307;29;20159;-63
2022/01/20 08:04:49;;;;;;;22.52;3.17;;;;;;;1.90;93.83;102604.09;4893360;29;21930;-63
2022/01/20 08:07:14;;;;;;;17.52;3.67;;;;;;;1.93;93.96;102605.88;4873606;29;20531;-65
2022/01/20 08:09:40;;;;;;;22.27;3.22;;;;;;;2.01;94.05;102603.41;4895474;29;20036;-65
2022/01/20 08:12:06;;;;;;;15.20;2.67;;;;;;;2.02;94.28;102606.06;4893944;29;20048;-65
2022/01/20 08:14:31;;;;;;;13.48;2.67;;;;;;;2.02;93.76;102611.28;4893756;29;20044;-64
2022/01/20 08:16:57;;;;;;;13.60;2.85;;;;;;;1.98;94.00;102604.25;4895606;29;20495;-63
2022/01/20 08:19:22;;;;;;;11.75;2.50;;;;;;;1.96;93.74;102608.53;4893861;29;20195;-63
2022/01/20 08:21:48;;;;;;;19.42;2.63;;;;;;;1.95;93.41;102619.84;4891928;29;20383;-64
2022/01/20 08:24:13;;;;;;;10.20;2.22;;;;;;;1.92;93.58;102617.19;4893686;29;20032;-65
2022/01/20 08:26:39;;;;;;;13.90;2.80;;;;;;;1.92;93.27;102614.59;4893254;29;20072;-64
2022/01/20 08:29:04;;;;;;;12.45;2.30;;;;;;;1.91;93.37;102615.44;4893886;29;20115;-64
2022/01/20 08:31:31;;;;;;;12.52;2.63;;;;;;;1.91;93.17;102605.00;4893749;29;20562;-64
2022/01/20 08:33:57;;;;;;;12.65;2.53;;;;;;;1.91;93.01;102605.00;4894566;29;20059;-66
2022/01/20 08:36:22;;;;;;;16.42;3.20;;;;;;;1.92;92.75;102603.25;4871122;29;20281;-64
2022/01/20 08:38:48;;;;;;;13.68;2.72;;;;;;;1.91;92.90;102605.00;4894551;29;20660;-64
2022/01/20 08:41:14;;;;;;;16.70;2.65;;;;;;;1.93;92.77;102613.72;4894581;29;20166;-65
2022/01/20 08:43:39;;;;;;;12.30;2.50;;;;;;;1.94;92.59;102594.59;4894794;29;20473;-64
2022/01/20 08:46:07;;;;;;;20.20;3.13;;;;;;;1.98;92.42;102600.75;4894698;29;20069;-65
2022/01/20 08:48:34;;;;;;;15.95;2.60;;;;;;;2.03;92.54;102614.78;4895066;29;20032;-64
2022/01/20 08:51:01;;;;;;;15.38;2.70;;;;;;;2.08;92.49;102614.88;4889569;29;20051;-66
2022/01/20 08:53:27;;;;;;;18.20;3.42;;;;;;;2.11;92.65;102628.88;4890779;29;20039;-64
2022/01/20 08:55:53;;;;;;;18.35;2.35;;;;;;;2.16;92.47;102642.00;4890520;29;20047;-64
2022/01/20 08:58:18;;;;;;;20.02;2.88;;;;;;;2.20;92.39;102648.19;4884208;29;20043;-64
2022/01/20 09:00:44;;;;;;;13.55;2.25;;;;;;;2.22;92.26;102649.97;4890175;29;20028;-64
2022/01/20 09:03:10;;;;;;;17.50;2.58;;;;;;;2.22;92.79;102642.13;4889970;29;20024;-64
2022/01/20 09:05:35;;;;;;;11.32;2.30;;;;;;;2.23;92.95;102641.28;4889901;29;20123;-66
2022/01/20 09:08:02;;;;;;;14.82;2.65;;;;;;;2.23;93.08;102646.50;4889221;29;20042;-64
2022/01/20 09:10:36;;;;;;;15.20;2.50;;;;;;;2.25;93.13;102650.03;4892459;29;20031;-64
2022/01/20 09:15:47;;;;;;;10.05;2.17;;;;;;;2.33;93.21;102672.81;4893300;29;20040;-64
2022/01/20 09:18:13;;;;;;;16.75;2.65;;;;;;;2.35;93.27;102658.03;4889895;29;20028;-65
2022/01/20 09:20:38;;;;;;;15.02;2.83;;;;;;;2.36;93.04;102672.88;4892276;29;20051;-64
2022/01/20 09:23:05;;;;;;;14.70;2.58;;;;;;;2.33;93.22;102668.47;4872793;29;20558;-65
2022/01/20 09:25:30;;;;;;;15.95;2.63;;;;;;;2.30;93.20;102669.28;4893072;29;20040;-64
2022/01/20 09:27:56;;;;;;;12.35;2.17;;;;;;;2.30;93.35;102674.50;4893478;29;20039;-64
2022/01/20 09:30:23;;;;;;;22.35;2.83;;;;;;;2.34;93.13;102685.03;4893046;29;20046;-64
2022/01/20 09:32:58;;;;;;;12.43;2.20;;;;;;;2.36;93.27;102688.56;4893605;29;20032;-64
2022/01/20 09:35:31;;;;;;;9.18;2.35;;;;;;;2.39;93.40;102679.03;4891584;29;20036;-64
2022/01/20 09:37:58;;;;;;;17.00;2.47;;;;;;;2.44;93.52;102685.22;4892855;29;20036;-64
2022/01/20 09:40:24;;;;;;;16.23;3.10;;;;;;;2.47;93.41;102681.78;4891777;29;20050;-64
2022/01/20 09:42:49;;;;;;;16.70;2.70;;;;;;;2.53;93.45;102681.91;4893471;29;20598;-65
2022/01/20 09:45:16;;;;;;;16.60;2.50;;;;;;;2.57;93.05;102681.09;4893337;29;20036;-64
2022/01/20 09:47:45;;;;;;;16.67;2.90;;;;;;;2.63;93.17;102688.19;4878382;29;20557;-64
2022/01/20 09:50:14;;;;;;;16.30;2.75;;;;;;;2.68;92.83;102688.25;4873541;29;20036;-63
2022/01/20 09:52:40;;;;;;;21.13;3.78;;;;;;;2.71;92.86;102697.03;4893102;29;20046;-64
2022/01/20 09:55:06;;;;;;;17.92;3.15;;;;;;;2.75;92.47;102703.19;4885936;29;20574;-64
2022/01/20 09:57:31;;;;;;;22.65;3.33;;;;;;;2.77;92.84;102705.84;4892368;29;20400;-64
2022/01/20 09:59:57;;;;;;;18.25;3.75;;;;;;;2.77;92.49;102706.72;4893543;29;20082;-65
2022/01/20 10:02:23;;;;;;;12.65;2.75;;;;;;;2.79;92.66;102706.75;4882822;29;20373;-65
2022/01/20 10:04:49;;;;;;;21.10;3.40;;;;;;;2.80;92.71;102717.25;4891664;29;20512;-64
2022/01/20 10:07:14;;;;;;;19.27;3.05;;;;;;;2.82;92.94;102717.25;4892136;29;21517;-65
2022/01/20 10:09:45;;;;;;;25.02;3.58;;;;;;;2.84;93.04;102721.66;4892199;29;20064;-65
2022/01/20 10:12:14;;;;;;;21.20;2.88;;;;;;;2.87;92.97;102733.06;4885609;29;20036;-64
2022/01/20 10:14:49;;;;;;;16.90;3.60;;;;;;;2.87;92.99;102719.97;4893719;29;20063;-65
2022/01/20 10:17:30;;;;;;;17.08;2.97;;;;;;;2.87;93.00;102717.34;4893334;29;20036;-64
2022/01/20 10:19:57;;;;;;;17.20;3.40;;;;;;;2.87;92.98;102733.06;4895031;29;20256;-64
2022/01/20 10:22:23;;;;;;;16.75;2.90;;;;;;;2.87;93.06;102719.97;4895800;29;20060;-64
2022/01/20 10:25:04;;;;;;;16.42;3.30;;;;;;;2.88;93.23;102714.75;4897290;29;20214;-65
2022/01/20 10:27:43;;;;;;;16.27;2.72;;;;;;;2.91;92.90;102711.28;4896638;29;20096;-65
2022/01/20 10:30:11;;;;;;;20.17;2.90;;;;;;;2.97;93.48;102717.53;4897145;29;20027;-65
2022/01/20 10:32:44;;;;;;;16.20;3.15;;;;;;;3.06;93.11;102719.38;4896631;29;20239;-65
2022/01/20 10:35:11;;;;;;;21.50;3.80;;;;;;;3.14;93.25;102716.03;4897063;29;20172;-65
2022/01/20 10:37:51;;;;;;;20.55;4.53;;;;;;;3.18;93.13;102707.38;4897337;29;20071;-65
2022/01/20 10:40:17;;;;;;;22.52;3.17;;;;;;;3.20;93.20;102724.84;4896830;29;20032;-65
2022/01/20 10:42:45;;;;;;;24.80;3.47;;;;;;;3.20;92.76;102705.63;4896161;29;20589;-65
2022/01/20 10:45:27;;;;;;;17.77;3.10;;;;;;;3.22;92.48;102703.94;4894783;29;20447;-64
2022/01/20 10:47:58;;;;;;;21.03;3.20;;;;;;;3.29;92.77;102707.53;4896420;29;20444;-65
2022/01/20 10:50:29;;;;;;;21.95;4.20;;;;;;;3.38;92.82;102724.25;4896740;29;20095;-65
2022/01/20 10:52:55;;;;;;;14.02;2.67;;;;;;;3.45;92.12;102729.59;4896720;29;20052;-65
2022/01/20 10:55:29;;;;;;;20.98;2.78;;;;;;;3.52;92.38;102731.44;4894594;29;20123;-64
2022/01/20 10:57:55;;;;;;;20.95;3.25;;;;;;;3.55;92.33;102759.41;4895783;29;20676;-64
2022/01/20 11:00:25;;;;;;;19.10;2.83;;;;;;;3.57;91.64;102755.06;4896960;29;20527;-65
2022/01/20 11:02:57;;;;;;;15.07;2.28;;;;;;;3.54;91.78;102748.03;4896482;29;20047;-65
2022/01/20 11:05:24;;;;;;;15.95;2.92;;;;;;;3.47;91.83;102756.66;4896320;29;20036;-65
2022/01/20 11:07:49;;;;;;;9.77;2.60;;;;;;;3.37;91.75;102755.66;4896221;29;20047;-65
2022/01/20 11:10:16;;;;;;;15.10;2.80;;;;;;;3.30;91.76;102744.22;4896736;29;20991;-65
2022/01/20 11:12:43;;;;;;;23.98;3.88;;;;;;;3.22;91.60;102741.47;4895698;29;20067;-65
2022/01/20 11:15:14;;;;;;;18.08;2.80;;;;;;;3.20;91.63;102731.81;4895635;29;20039;-65
2022/01/20 11:17:41;;;;;;;19.85;3.15;;;;;;;3.23;91.46;102739.75;4888963;29;20040;-65
2022/01/20 11:20:20;;;;;;;17.55;3.22;;;;;;;3.31;91.49;102739.88;4889939;29;20032;-65
2022/01/20 11:22:55;;;;;;;15.05;2.80;;;;;;;3.34;91.82;102756.50;4878837;29;20454;-65
2022/01/20 11:25:22;;;;;;;15.50;2.90;;;;;;;3.37;92.13;102784.44;4896017;29;20040;-65
2022/01/20 11:27:51;;;;;;;13.07;2.63;;;;;;;3.32;91.67;102747.72;4895697;29;20074;-64
2022/01/20 11:30:26;;;;;;;15.60;2.83;;;;;;;3.28;92.00;102735.47;4896195;29;20546;-64
2022/01/20 11:33:09;;;;;;;10.57;1.73;;;;;;;3.24;91.89;102726.69;4894328;29;20275;-65
2022/01/20 11:35:39;;;;;;;15.07;2.42;;;;;;;3.20;92.03;102729.19;4894432;29;20036;-66
2022/01/20 11:38:05;;;;;;;14.70;1.83;;;;;;;3.12;91.86;102729.97;4895243;29;20064;-66
2022/01/20 11:40:31;;;;;;;11.32;1.83;;;;;;;3.07;91.84;102723.78;4894570;29;20040;-66
2022/01/20 11:43:02;;;;;;;14.10;2.72;;;;;;;3.03;91.92;102728.94;4891592;29;20510;-65
2022/01/20 11:45:40;;;;;;;14.50;2.13;;;;;;;2.99;91.82;102723.66;4867937;29;20746;-65
2022/01/20 11:48:18;;;;;;;14.48;2.60;;;;;;;2.98;91.76;102719.28;4891219;29;20237;-65
2022/01/20 11:50:44;;;;;;;17.48;2.45;;;;;;;3.03;91.96;102713.22;4889631;29;20032;-65
2022/01/20 11:53:12;;;;;;;12.55;2.55;;;;;;;3.08;92.05;102715.09;4891990;29;20058;-65
2022/01/20 11:55:47;;;;;;;12.95;2.58;;;;;;;3.20;91.85;102717.00;4892720;29;20043;-65
2022/01/20 11:58:14;;;;;;;18.17;2.47;;;;;;;3.30;92.04;102715.41;4872408;29;20402;-65
2022/01/20 12:00:40;;;;;;;18.17;3.33;;;;;;;3.37;91.97;102706.78;4891507;29;20620;-65
2022/01/20 12:03:14;;;;;;;15.45;2.65;;;;;;;3.42;91.53;102708.59;4878804;29;20574;-65
2022/01/20 12:05:40;;;;;;;16.55;3.13;;;;;;;3.41;91.88;102720.81;4876059;29;20036;-65
2022/01/20 12:08:12;;;;;;;20.70;3.00;;;;;;;3.33;91.70;102727.66;4873281;29;20047;-65
2022/01/20 12:10:39;;;;;;;18.52;2.85;;;;;;;3.24;91.75;102736.25;4890630;29;20593;-65
2022/01/20 12:13:13;;;;;;;19.02;3.10;;;;;;;3.21;92.12;102737.09;4891196;29;20135;-65
2022/01/20 12:15:49;;;;;;;9.65;2.22;;;;;;;3.23;92.45;102737.97;4892421;29;20424;-65
2022/01/20 12:18:15;;;;;;;18.45;2.45;;;;;;;3.23;92.14;102731.88;4881801;29;20068;-64
2022/01/20 12:20:41;;;;;;;19.05;2.63;;;;;;;3.22;92.50;102719.66;4889897;29;20032;-64
2022/01/20 12:23:06;;;;;;;15.07;2.53;;;;;;;3.25;92.70;102719.69;4889611;29;20056;-64
2022/01/20 12:25:35;;;;;;;21.90;2.97;;;;;;;3.30;92.47;102728.50;4887194;29;20051;-64
2022/01/20 12:28:03;;;;;;;15.77;2.60;;;;;;;3.30;92.21;102746.81;4876515;29;20119;-64
2022/01/20 12:30:30;;;;;;;20.13;2.78;;;;;;;3.23;92.37;102758.06;4890313;29;20554;-64
2022/01/20 12:33:01;;;;;;;14.80;2.92;;;;;;;2.97;92.65;102763.75;4891314;29;20447;-66
2022/01/20 12:35:40;;;;;;;16.00;2.60;;;;;;;2.70;92.65;102738.84;4890373;29;20046;-66
2022/01/20 12:38:26;;;;;;;16.77;2.65;;;;;;;2.54;93.05;102743.81;4889962;29;20036;-66